Cyprus Cement — C6UP5 — position and weather

sailwx.info

Track history (hours):
 
Tides and Currents Weather Stations Pressure Air Temp Water Temp Dewpoint Dewpoint Depression Visibility Wind Speed Wind Dir Waves Ship Positions

Cyprus Cement

Last reported at 2014-Nov-28 05:33 UTC. Time now 2014-Nov-28 05:44 UTC.
Position N 58°12' E 008°32'.

Length 97 m; draft 4.8 m.

Type: Cargo ship. MMSI: 311988000.

Date/timePositionNaut miles runAvg speedWind from/ knotsBaromVisibWave heightAir tempDewpointWater temp
2014-Nov-28 05:33N 58°12' E 008°32'8 8.2
2014-Nov-28 04:33N 58°07' E 008°20'58 3.0
2014-Nov-27 09:30N 58°07' E 006°30'8 9.0
2014-Nov-27 08:33N 58°12' E 006°18'7 7.1
2014-Nov-27 07:33N 58°17' E 006°08'7 7.5
2014-Nov-27 06:33N 58°22' E 005°58'7 7.3
2014-Nov-27 05:33N 58°27' E 005°47'8 8.4
2014-Nov-27 04:34N 58°33' E 005°36'9 8.3
2014-Nov-27 03:30N 58°41' E 005°28'7 7.6
2014-Nov-27 02:33N 58°48' E 005°23'9 9.1
2014-Nov-27 01:33N 58°57' E 005°20'1110.9
2014-Nov-27 00:34N 59°07' E 005°20'1211.6
2014-Nov-26 23:33N 59°19' E 005°20'290 9.0
2014-Nov-25 15:26N 63°39' E 009°46'1112.2
2014-Nov-25 14:34N 63°30' E 009°56'1010.4
2014-Nov-25 13:33N 63°32' E 010°19'1110.9
2014-Nov-25 12:34N 63°38' E 010°39'1111.2
2014-Nov-25 11:33N 63°44' E 011°00'8 0.4
2014-Nov-24 14:09N 63°46' E 011°17'711.5
2014-Nov-24 13:33N 63°44' E 011°02'1212.1
2014-Nov-24 12:33N 63°37' E 010°39'1212.0
2014-Nov-24 11:34N 63°27' E 010°25'0 0.4
2014-Nov-24 10:31N 63°27' E 010°25'0 0.0
2014-Nov-24 09:31N 63°27' E 010°25'0 0.0
2014-Nov-24 08:31N 63°27' E 010°25'0 0.0
2014-Nov-24 07:31N 63°27' E 010°25'0 0.0
2014-Nov-24 06:31N 63°27' E 010°25'0 0.0
2014-Nov-24 05:31N 63°27' E 010°25'0 0.0
2014-Nov-24 04:31N 63°27' E 010°25'0 0.0
2014-Nov-24 03:31N 63°27' E 010°25'0 0.3
2014-Nov-24 02:33N 63°27' E 010°25'1010.1
2014-Nov-24 01:33N 63°28' E 010°03'1310.0
2014-Nov-24 00:14N 63°39' E 009°45'300 6.6
2014-Nov-22 02:33N 59°12' E 005°02'1212.3
2014-Nov-22 01:33N 59°00' E 005°10'1111.4
2014-Nov-22 00:33N 58°49' E 005°17'1111.4
2014-Nov-21 23:33N 58°39' E 005°25'1312.7
2014-Nov-21 22:33N 58°28' E 005°37'1312.4
2014-Nov-21 21:33N 58°19' E 005°55'1111.1
2014-Nov-21 20:32N 58°11' E 006°10'1110.8
2014-Nov-21 19:33N 58°04' E 006°24'5911.0
2014-Nov-21 14:15N 58°02' E 008°15'912.5
2014-Nov-21 13:33N 58°07' E 008°28'1313.0
2014-Nov-21 12:34N 58°16' E 008°46'5611.0
2014-Nov-21 07:27N 59°04' E 009°42'49 2.5
2014-Nov-20 12:04N 58°23' E 008°51'510.2
2014-Nov-20 11:33N 58°19' E 008°44'10 9.9
2014-Nov-20 10:33N 58°12' E 008°31'10 9.9
2014-Nov-20 09:33N 58°06' E 008°16'59 3.7
2014-Nov-19 17:34N 58°08' E 006°26'1111.4
2014-Nov-19 16:34N 58°16' E 006°11'1110.8
2014-Nov-19 15:33N 58°23' E 005°55'1010.1
2014-Nov-19 14:33N 58°29' E 005°39'1511.5
2014-Nov-19 13:17N 58°42' E 005°27'810.5
2014-Nov-19 12:33N 58°49' E 005°26'8 7.9
2014-Nov-19 11:32N 58°55' E 005°36'0 0.0
2014-Nov-19 10:32N 58°55' E 005°36'0 0.0
2014-Nov-19 09:32N 58°55' E 005°36'0 0.0
2014-Nov-19 08:32N 58°55' E 005°36'0 0.1
2014-Nov-19 07:33N 58°55' E 005°36'7 7.4
2014-Nov-19 06:33N 59°03' E 005°33'9 9.1
2014-Nov-19 05:34N 58°57' E 005°47'4 3.5
2014-Nov-19 04:32N 58°54' E 005°45'0 0.0
2014-Nov-19 03:32N 58°54' E 005°45'0 0.0
2014-Nov-19 02:32N 58°54' E 005°45'0 0.0
2014-Nov-19 01:32N 58°54' E 005°45'0 0.0
2014-Nov-19 00:32N 58°54' E 005°45'1 0.8
2014-Nov-18 23:33N 58°55' E 005°46'7 7.2
2014-Nov-18 22:33N 59°01' E 005°40'1212.1
2014-Nov-18 21:33N 59°09' E 005°21'  
Track history (hours):
 
Tides and Currents Weather Stations Pressure Air Temp Water Temp Dewpoint Dewpoint Depression Visibility Wind Speed Wind Dir Waves Ship Positions

Cyprus Cement

Last reported at 2014-Nov-28 05:33 UTC. Time now 2014-Nov-28 05:44 UTC.
Position N 58°12' E 008°32'.

Length 97 m; draft 4.8 m.

Type: Cargo ship. MMSI: 311988000.

Date/timePositionNaut miles runAvg speedWind from/ knotsBaromVisibWave heightAir tempDewpointWater temp
2014-Nov-28 05:33N 58°12' E 008°32'8 8.2
2014-Nov-28 04:33N 58°07' E 008°20'58 3.0
2014-Nov-27 09:30N 58°07' E 006°30'8 9.0
2014-Nov-27 08:33N 58°12' E 006°18'7 7.1
2014-Nov-27 07:33N 58°17' E 006°08'7 7.5
2014-Nov-27 06:33N 58°22' E 005°58'7 7.3
2014-Nov-27 05:33N 58°27' E 005°47'8 8.4
2014-Nov-27 04:34N 58°33' E 005°36'9 8.3
2014-Nov-27 03:30N 58°41' E 005°28'7 7.6
2014-Nov-27 02:33N 58°48' E 005°23'9 9.1
2014-Nov-27 01:33N 58°57' E 005°20'1110.9
2014-Nov-27 00:34N 59°07' E 005°20'1211.6
2014-Nov-26 23:33N 59°19' E 005°20'290 9.0
2014-Nov-25 15:26N 63°39' E 009°46'1112.2
2014-Nov-25 14:34N 63°30' E 009°56'1010.4
2014-Nov-25 13:33N 63°32' E 010°19'1110.9
2014-Nov-25 12:34N 63°38' E 010°39'1111.2
2014-Nov-25 11:33N 63°44' E 011°00'8 0.4
2014-Nov-24 14:09N 63°46' E 011°17'711.5
2014-Nov-24 13:33N 63°44' E 011°02'1212.1
2014-Nov-24 12:33N 63°37' E 010°39'1212.0
2014-Nov-24 11:34N 63°27' E 010°25'0 0.4
2014-Nov-24 10:31N 63°27' E 010°25'0 0.0
2014-Nov-24 09:31N 63°27' E 010°25'0 0.0
2014-Nov-24 08:31N 63°27' E 010°25'0 0.0
2014-Nov-24 07:31N 63°27' E 010°25'0 0.0
2014-Nov-24 06:31N 63°27' E 010°25'0 0.0
2014-Nov-24 05:31N 63°27' E 010°25'0 0.0
2014-Nov-24 04:31N 63°27' E 010°25'0 0.0
2014-Nov-24 03:31N 63°27' E 010°25'0 0.3
2014-Nov-24 02:33N 63°27' E 010°25'1010.1
2014-Nov-24 01:33N 63°28' E 010°03'1310.0
2014-Nov-24 00:14N 63°39' E 009°45'300 6.6
2014-Nov-22 02:33N 59°12' E 005°02'1212.3
2014-Nov-22 01:33N 59°00' E 005°10'1111.4
2014-Nov-22 00:33N 58°49' E 005°17'1111.4
2014-Nov-21 23:33N 58°39' E 005°25'1312.7
2014-Nov-21 22:33N 58°28' E 005°37'1312.4
2014-Nov-21 21:33N 58°19' E 005°55'1111.1
2014-Nov-21 20:32N 58°11' E 006°10'1110.8
2014-Nov-21 19:33N 58°04' E 006°24'5911.0
2014-Nov-21 14:15N 58°02' E 008°15'912.5
2014-Nov-21 13:33N 58°07' E 008°28'1313.0
2014-Nov-21 12:34N 58°16' E 008°46'5611.0
2014-Nov-21 07:27N 59°04' E 009°42'49 2.5
2014-Nov-20 12:04N 58°23' E 008°51'510.2
2014-Nov-20 11:33N 58°19' E 008°44'10 9.9
2014-Nov-20 10:33N 58°12' E 008°31'10 9.9
2014-Nov-20 09:33N 58°06' E 008°16'59 3.7
2014-Nov-19 17:34N 58°08' E 006°26'1111.4
2014-Nov-19 16:34N 58°16' E 006°11'1110.8
2014-Nov-19 15:33N 58°23' E 005°55'1010.1
2014-Nov-19 14:33N 58°29' E 005°39'1511.5
2014-Nov-19 13:17N 58°42' E 005°27'810.5
2014-Nov-19 12:33N 58°49' E 005°26'8 7.9
2014-Nov-19 11:32N 58°55' E 005°36'0 0.0
2014-Nov-19 10:32N 58°55' E 005°36'0 0.0
2014-Nov-19 09:32N 58°55' E 005°36'0 0.0
2014-Nov-19 08:32N 58°55' E 005°36'0 0.1
2014-Nov-19 07:33N 58°55' E 005°36'7 7.4
2014-Nov-19 06:33N 59°03' E 005°33'9 9.1
2014-Nov-19 05:34N 58°57' E 005°47'4 3.5
2014-Nov-19 04:32N 58°54' E 005°45'0 0.0
2014-Nov-19 03:32N 58°54' E 005°45'0 0.0
2014-Nov-19 02:32N 58°54' E 005°45'0 0.0
2014-Nov-19 01:32N 58°54' E 005°45'0 0.0
2014-Nov-19 00:32N 58°54' E 005°45'1 0.8
2014-Nov-18 23:33N 58°55' E 005°46'7 7.2
2014-Nov-18 22:33N 59°01' E 005°40'1212.1
2014-Nov-18 21:33N 59°09' E 005°21'  

Dump ship's entire track history